sensor_id;sensor_type;location;lat;lon;timestamp;pressure;altitude;pressure_sealevel;temperature;humidity
10075;BME280;5076;42.680;23.288;2023-02-10T00:01:18;96708.53;;;-6.63;100.00
10075;BME280;5076;42.680;23.288;2023-02-10T00:03:46;96713.88;;;-6.66;100.00
10075;BME280;5076;42.680;23.288;2023-02-10T00:06:13;96711.00;;;-6.62;100.00
10075;BME280;5076;42.680;23.288;2023-02-10T00:08:45;96703.22;;;-6.73;100.00
10075;BME280;5076;42.680;23.288;2023-02-10T00:11:12;96715.44;;;-6.64;100.00
10075;BME280;5076;42.680;23.288;2023-02-10T00:13:41;96707.41;;;-6.59;100.00
10075;BME280;5076;42.680;23.288;2023-02-10T00:16:10;96703.91;;;-6.58;100.00
10075;BME280;5076;42.680;23.288;2023-02-10T00:18:38;96695.78;;;-6.65;100.00
10075;BME280;5076;42.680;23.288;2023-02-10T00:21:06;96698.97;;;-6.61;100.00
10075;BME280;5076;42.680;23.288;2023-02-10T00:23:33;96694.84;;;-6.64;100.00
10075;BME280;5076;42.680;23.288;2023-02-10T00:26:03;96700.72;;;-6.62;100.00
10075;BME280;5076;42.680;23.288;2023-02-10T00:28:32;96700.94;;;-6.65;100.00
10075;BME280;5076;42.680;23.288;2023-02-10T00:30:59;96692.41;;;-6.78;100.00
10075;BME280;5076;42.680;23.288;2023-02-10T00:33:26;96705.25;;;-6.78;100.00
10075;BME280;5076;42.680;23.288;2023-02-10T00:35:53;96698.38;;;-6.78;100.00
10075;BME280;5076;42.680;23.288;2023-02-10T00:38:20;96680.59;;;-6.81;100.00
10075;BME280;5076;42.680;23.288;2023-02-10T00:40:46;96678.03;;;-6.81;100.00
10075;BME280;5076;42.680;23.288;2023-02-10T00:43:15;96687.56;;;-6.70;100.00
10075;BME280;5076;42.680;23.288;2023-02-10T00:45:42;96681.22;;;-6.77;100.00
10075;BME280;5076;42.680;23.288;2023-02-10T00:48:09;96686.41;;;-6.66;100.00
10075;BME280;5076;42.680;23.288;2023-02-10T00:50:36;96664.13;;;-6.78;100.00
10075;BME280;5076;42.680;23.288;2023-02-10T00:53:02;96669.28;;;-6.78;100.00
10075;BME280;5076;42.680;23.288;2023-02-10T00:55:29;96670.63;;;-6.85;100.00
10075;BME280;5076;42.680;23.288;2023-02-10T00:57:56;96679.13;;;-6.72;100.00
10075;BME280;5076;42.680;23.288;2023-02-10T01:00:24;96673.88;;;-6.58;100.00
10075;BME280;5076;42.680;23.288;2023-02-10T01:02:51;96667.91;;;-6.71;100.00
10075;BME280;5076;42.680;23.288;2023-02-10T01:05:18;96656.00;;;-6.85;100.00
10075;BME280;5076;42.680;23.288;2023-02-10T01:07:45;96672.88;;;-6.81;100.00
10075;BME280;5076;42.680;23.288;2023-02-10T01:10:12;96666.00;;;-6.80;100.00
10075;BME280;5076;42.680;23.288;2023-02-10T01:12:38;96666.28;;;-6.85;100.00
10075;BME280;5076;42.680;23.288;2023-02-10T01:15:06;96672.47;;;-6.87;100.00
10075;BME280;5076;42.680;23.288;2023-02-10T01:17:34;96668.75;;;-6.83;100.00
10075;BME280;5076;42.680;23.288;2023-02-10T01:20:01;96654.91;;;-6.93;100.00
10075;BME280;5076;42.680;23.288;2023-02-10T01:22:28;96657.28;;;-6.90;100.00
10075;BME280;5076;42.680;23.288;2023-02-10T01:24:55;96653.47;;;-6.97;100.00
10075;BME280;5076;42.680;23.288;2023-02-10T01:27:22;96658.59;;;-6.97;100.00
10075;BME280;5076;42.680;23.288;2023-02-10T01:29:49;96664.03;;;-7.02;100.00
10075;BME280;5076;42.680;23.288;2023-02-10T01:32:16;96652.75;;;-6.99;100.00
10075;BME280;5076;42.680;23.288;2023-02-10T01:34:44;96636.22;;;-7.08;100.00
10075;BME280;5076;42.680;23.288;2023-02-10T01:37:11;96654.31;;;-7.10;100.00
10075;BME280;5076;42.680;23.288;2023-02-10T01:39:38;96648.97;;;-7.06;100.00
10075;BME280;5076;42.680;23.288;2023-02-10T01:42:05;96638.50;;;-7.29;100.00
10075;BME280;5076;42.680;23.288;2023-02-10T01:45:11;96652.94;;;-7.02;100.00
10075;BME280;5076;42.680;23.288;2023-02-10T01:47:39;96646.59;;;-7.10;100.00
10075;BME280;5076;42.680;23.288;2023-02-10T01:50:08;96637.34;;;-7.12;100.00
10075;BME280;5076;42.680;23.288;2023-02-10T01:52:35;96631.81;;;-7.31;100.00
10075;BME280;5076;42.680;23.288;2023-02-10T01:55:04;96632.44;;;-7.28;100.00
10075;BME280;5076;42.680;23.288;2023-02-10T01:57:33;96637.75;;;-7.31;100.00
10075;BME280;5076;42.680;23.288;2023-02-10T02:00:01;96636.94;;;-7.31;100.00
10075;BME280;5076;42.680;23.288;2023-02-10T02:02:29;96634.81;;;-7.37;100.00
10075;BME280;5076;42.680;23.288;2023-02-10T02:05:02;96633.25;;;-7.40;100.00
10075;BME280;5076;42.680;23.288;2023-02-10T02:07:32;96620.31;;;-7.38;100.00
10075;BME280;5076;42.680;23.288;2023-02-10T02:10:02;96619.06;;;-7.46;100.00
10075;BME280;5076;42.680;23.288;2023-02-10T02:12:41;96614.75;;;-7.45;100.00
10075;BME280;5076;42.680;23.288;2023-02-10T02:15:16;96616.50;;;-7.46;100.00
10075;BME280;5076;42.680;23.288;2023-02-10T02:17:51;96597.31;;;-7.65;100.00
10075;BME280;5076;42.680;23.288;2023-02-10T02:23:50;96590.84;;;-7.58;100.00
10075;BME280;5076;42.680;23.288;2023-02-10T02:26:51;96613.84;;;-7.44;100.00
10075;BME280;5076;42.680;23.288;2023-02-10T02:29:42;96613.75;;;-7.42;100.00
10075;BME280;5076;42.680;23.288;2023-02-10T02:32:17;96599.88;;;-7.53;100.00
10075;BME280;5076;42.680;23.288;2023-02-10T02:34:49;96608.50;;;-7.54;100.00
10075;BME280;5076;42.680;23.288;2023-02-10T02:37:21;96603.88;;;-7.61;100.00
10075;BME280;5076;42.680;23.288;2023-02-10T02:39:51;96619.28;;;-7.61;100.00
10075;BME280;5076;42.680;23.288;2023-02-10T02:42:20;96605.31;;;-7.70;100.00
10075;BME280;5076;42.680;23.288;2023-02-10T02:44:51;96615.59;;;-7.70;100.00
10075;BME280;5076;42.680;23.288;2023-02-10T02:47:28;96615.88;;;-7.62;100.00
10075;BME280;5076;42.680;23.288;2023-02-10T02:50:10;96617.84;;;-7.65;100.00
10075;BME280;5076;42.680;23.288;2023-02-10T02:52:45;96608.72;;;-7.69;100.00
10075;BME280;5076;42.680;23.288;2023-02-10T02:55:22;96612.59;;;-7.76;100.00
10075;BME280;5076;42.680;23.288;2023-02-10T02:57:54;96611.38;;;-7.71;100.00
10075;BME280;5076;42.680;23.288;2023-02-10T03:00:25;96601.53;;;-7.64;100.00
10075;BME280;5076;42.680;23.288;2023-02-10T03:02:55;96597.00;;;-7.73;100.00
10075;BME280;5076;42.680;23.288;2023-02-10T03:05:29;96600.38;;;-7.73;100.00
10075;BME280;5076;42.680;23.288;2023-02-10T03:07:57;96595.66;;;-7.79;100.00
10075;BME280;5076;42.680;23.288;2023-02-10T03:10:24;96598.63;;;-7.72;100.00
10075;BME280;5076;42.680;23.288;2023-02-10T03:12:51;96600.47;;;-7.74;100.00
10075;BME280;5076;42.680;23.288;2023-02-10T03:15:17;96607.34;;;-7.62;100.00
10075;BME280;5076;42.680;23.288;2023-02-10T03:17:44;96616.59;;;-7.47;100.00
10075;BME280;5076;42.680;23.288;2023-02-10T03:20:13;96607.25;;;-7.61;100.00
10075;BME280;5076;42.680;23.288;2023-02-10T03:22:40;96610.25;;;-7.54;100.00
10075;BME280;5076;42.680;23.288;2023-02-10T03:25:08;96605.72;;;-7.63;100.00
10075;BME280;5076;42.680;23.288;2023-02-10T03:27:35;96607.88;;;-7.57;100.00
10075;BME280;5076;42.680;23.288;2023-02-10T03:30:02;96611.38;;;-7.58;100.00
10075;BME280;5076;42.680;23.288;2023-02-10T03:32:29;96613.31;;;-7.62;100.00
10075;BME280;5076;42.680;23.288;2023-02-10T03:34:55;96604.41;;;-7.69;100.00
10075;BME280;5076;42.680;23.288;2023-02-10T03:37:24;96586.00;;;-7.75;100.00
10075;BME280;5076;42.680;23.288;2023-02-10T03:39:51;96597.63;;;-7.83;100.00
10075;BME280;5076;42.680;23.288;2023-02-10T03:42:18;96589.28;;;-7.86;100.00
10075;BME280;5076;42.680;23.288;2023-02-10T03:44:44;96600.19;;;-7.83;100.00
10075;BME280;5076;42.680;23.288;2023-02-10T03:47:11;96580.56;;;-7.84;100.00
10075;BME280;5076;42.680;23.288;2023-02-10T03:49:38;96583.25;;;-7.72;100.00
10075;BME280;5076;42.680;23.288;2023-02-10T03:52:05;96568.13;;;-7.90;100.00
10075;BME280;5076;42.680;23.288;2023-02-10T03:54:33;96575.00;;;-7.77;100.00
10075;BME280;5076;42.680;23.288;2023-02-10T03:57:00;96568.22;;;-7.91;100.00
10075;BME280;5076;42.680;23.288;2023-02-10T03:59:27;96573.69;;;-7.96;100.00
10075;BME280;5076;42.680;23.288;2023-02-10T04:01:54;96581.09;;;-7.66;100.00
10075;BME280;5076;42.680;23.288;2023-02-10T04:04:21;96582.84;;;-7.79;100.00
10075;BME280;5076;42.680;23.288;2023-02-10T04:06:47;96581.69;;;-8.00;100.00
10075;BME280;5076;42.680;23.288;2023-02-10T04:09:14;96572.88;;;-7.96;100.00
10075;BME280;5076;42.680;23.288;2023-02-10T04:11:43;96591.94;;;-7.88;100.00
10075;BME280;5076;42.680;23.288;2023-02-10T04:14:10;96577.47;;;-8.01;100.00
10075;BME280;5076;42.680;23.288;2023-02-10T04:16:37;96573.25;;;-8.02;100.00
10075;BME280;5076;42.680;23.288;2023-02-10T04:19:03;96578.91;;;-7.97;100.00
10075;BME280;5076;42.680;23.288;2023-02-10T04:21:30;96589.09;;;-7.96;100.00
10075;BME280;5076;42.680;23.288;2023-02-10T04:23:57;96587.84;;;-7.90;100.00
10075;BME280;5076;42.680;23.288;2023-02-10T04:26:24;96587.44;;;-7.84;100.00
10075;BME280;5076;42.680;23.288;2023-02-10T04:28:52;96574.91;;;-7.89;100.00
10075;BME280;5076;42.680;23.288;2023-02-10T04:31:19;96602.56;;;-7.79;100.00
10075;BME280;5076;42.680;23.288;2023-02-10T04:33:46;96574.91;;;-7.89;100.00
10075;BME280;5076;42.680;23.288;2023-02-10T04:36:13;96582.72;;;-7.90;100.00
10075;BME280;5076;42.680;23.288;2023-02-10T04:38:40;96579.13;;;-8.00;100.00
10075;BME280;5076;42.680;23.288;2023-02-10T04:41:07;96585.78;;;-7.98;100.00
10075;BME280;5076;42.680;23.288;2023-02-10T04:43:34;96580.22;;;-8.04;100.00
10075;BME280;5076;42.680;23.288;2023-02-10T04:46:02;96588.75;;;-7.91;100.00
10075;BME280;5076;42.680;23.288;2023-02-10T04:48:29;96591.66;;;-7.96;100.00
10075;BME280;5076;42.680;23.288;2023-02-10T04:50:56;96592.34;;;-7.94;100.00
10075;BME280;5076;42.680;23.288;2023-02-10T04:53:23;96596.47;;;-7.91;100.00
10075;BME280;5076;42.680;23.288;2023-02-10T04:55:50;96583.41;;;-8.01;100.00
10075;BME280;5076;42.680;23.288;2023-02-10T04:58:17;96582.97;;;-8.20;100.00
10075;BME280;5076;42.680;23.288;2023-02-10T05:00:44;96607.81;;;-8.08;100.00
10075;BME280;5076;42.680;23.288;2023-02-10T05:03:12;96606.28;;;-8.10;100.00
10075;BME280;5076;42.680;23.288;2023-02-10T05:05:39;96593.09;;;-8.31;100.00
10075;BME280;5076;42.680;23.288;2023-02-10T05:08:06;96602.84;;;-8.24;100.00
10075;BME280;5076;42.680;23.288;2023-02-10T05:10:33;96602.97;;;-8.25;100.00
10075;BME280;5076;42.680;23.288;2023-02-10T05:13:00;96598.44;;;-8.22;100.00
10075;BME280;5076;42.680;23.288;2023-02-10T05:15:27;96587.88;;;-8.30;100.00
10075;BME280;5076;42.680;23.288;2023-02-10T05:17:53;96592.09;;;-8.29;100.00
10075;BME280;5076;42.680;23.288;2023-02-10T05:20:22;96622.69;;;-8.13;100.00
10075;BME280;5076;42.680;23.288;2023-02-10T05:22:49;96625.06;;;-8.10;100.00
10075;BME280;5076;42.680;23.288;2023-02-10T05:25:16;96625.56;;;-8.18;100.00
10075;BME280;5076;42.680;23.288;2023-02-10T05:27:42;96624.28;;;-8.25;100.00
10075;BME280;5076;42.680;23.288;2023-02-10T05:30:10;96634.06;;;-8.17;100.00
10075;BME280;5076;42.680;23.288;2023-02-10T05:32:38;96623.44;;;-8.11;100.00
10075;BME280;5076;42.680;23.288;2023-02-10T05:35:06;96623.72;;;-8.16;100.00
10075;BME280;5076;42.680;23.288;2023-02-10T05:37:34;96641.81;;;-7.92;100.00
10075;BME280;5076;42.680;23.288;2023-02-10T05:40:02;96643.66;;;-7.94;100.00
10075;BME280;5076;42.680;23.288;2023-02-10T05:42:29;96653.44;;;-7.86;100.00
10075;BME280;5076;42.680;23.288;2023-02-10T05:44:55;96633.28;;;-7.92;100.00
10075;BME280;5076;42.680;23.288;2023-02-10T05:47:22;96647.19;;;-7.82;100.00
10075;BME280;5076;42.680;23.288;2023-02-10T05:49:49;96658.06;;;-7.78;100.00
10075;BME280;5076;42.680;23.288;2023-02-10T05:52:16;96656.03;;;-7.73;100.00
10075;BME280;5076;42.680;23.288;2023-02-10T05:54:44;96646.69;;;-7.74;100.00
10075;BME280;5076;42.680;23.288;2023-02-10T05:57:11;96659.75;;;-7.65;100.00
10075;BME280;5076;42.680;23.288;2023-02-10T05:59:38;96653.56;;;-7.62;100.00
10075;BME280;5076;42.680;23.288;2023-02-10T06:02:07;96656.47;;;-7.54;100.00
10075;BME280;5076;42.680;23.288;2023-02-10T06:04:33;96657.28;;;-7.41;100.00
10075;BME280;5076;42.680;23.288;2023-02-10T06:07:00;96668.59;;;-7.31;100.00
10075;BME280;5076;42.680;23.288;2023-02-10T06:09:27;96660.28;;;-7.34;100.00
10075;BME280;5076;42.680;23.288;2023-02-10T06:11:55;96662.22;;;-7.25;100.00
10075;BME280;5076;42.680;23.288;2023-02-10T06:14:22;96668.63;;;-7.18;100.00
10075;BME280;5076;42.680;23.288;2023-02-10T06:16:49;96669.91;;;-7.00;100.00
10075;BME280;5076;42.680;23.288;2023-02-10T06:19:16;96672.56;;;-7.01;100.00
10075;BME280;5076;42.680;23.288;2023-02-10T06:21:43;96679.47;;;-7.02;100.00
10075;BME280;5076;42.680;23.288;2023-02-10T06:24:10;96674.84;;;-6.97;100.00
10075;BME280;5076;42.680;23.288;2023-02-10T06:26:36;96680.00;;;-6.97;100.00
10075;BME280;5076;42.680;23.288;2023-02-10T06:29:05;96680.09;;;-6.98;100.00
10075;BME280;5076;42.680;23.288;2023-02-10T06:31:32;96661.19;;;-7.10;100.00
10075;BME280;5076;42.680;23.288;2023-02-10T06:33:59;96689.53;;;-6.86;100.00
10075;BME280;5076;42.680;23.288;2023-02-10T06:36:26;96688.72;;;-6.87;100.00
10075;BME280;5076;42.680;23.288;2023-02-10T06:38:52;96681.94;;;-6.75;100.00
10075;BME280;5076;42.680;23.288;2023-02-10T06:41:19;96685.34;;;-6.51;100.00
10075;BME280;5076;42.680;23.288;2023-02-10T06:43:46;96677.75;;;-6.52;100.00
10075;BME280;5076;42.680;23.288;2023-02-10T06:46:15;96685.28;;;-6.25;100.00
10075;BME280;5076;42.680;23.288;2023-02-10T06:48:42;96684.44;;;-6.13;100.00
10075;BME280;5076;42.680;23.288;2023-02-10T06:51:09;96675.59;;;-6.22;100.00
10075;BME280;5076;42.680;23.288;2023-02-10T06:53:36;96676.75;;;-6.02;100.00
10075;BME280;5076;42.680;23.288;2023-02-10T06:56:03;96686.63;;;-5.85;100.00
10075;BME280;5076;42.680;23.288;2023-02-10T06:58:30;96687.09;;;-5.80;100.00
10075;BME280;5076;42.680;23.288;2023-02-10T07:00:57;96682.56;;;-5.76;100.00
10075;BME280;5076;42.680;23.288;2023-02-10T07:03:28;96683.88;;;-5.71;100.00
10075;BME280;5076;42.680;23.288;2023-02-10T07:05:54;96689.34;;;-5.51;100.00
10075;BME280;5076;42.680;23.288;2023-02-10T07:08:21;96674.44;;;-5.59;100.00
10075;BME280;5076;42.680;23.288;2023-02-10T07:10:48;96690.03;;;-5.49;100.00
10075;BME280;5076;42.680;23.288;2023-02-10T07:13:15;96668.59;;;-5.50;100.00
10075;BME280;5076;42.680;23.288;2023-02-10T07:15:42;96682.34;;;-5.27;100.00
10075;BME280;5076;42.680;23.288;2023-02-10T07:18:09;96677.69;;;-5.22;100.00
10075;BME280;5076;42.680;23.288;2023-02-10T07:20:37;96667.16;;;-5.08;100.00
10075;BME280;5076;42.680;23.288;2023-02-10T07:23:04;96680.28;;;-5.00;100.00
10075;BME280;5076;42.680;23.288;2023-02-10T07:25:31;96671.75;;;-4.89;100.00
10075;BME280;5076;42.680;23.288;2023-02-10T07:27:58;96681.00;;;-4.75;100.00
10075;BME280;5076;42.680;23.288;2023-02-10T07:30:25;96683.09;;;-4.69;100.00
10075;BME280;5076;42.680;23.288;2023-02-10T07:32:52;96688.03;;;-4.55;100.00
10075;BME280;5076;42.680;23.288;2023-02-10T07:35:19;96676.31;;;-4.48;100.00
10075;BME280;5076;42.680;23.288;2023-02-10T07:37:47;96673.72;;;-4.48;100.00
10075;BME280;5076;42.680;23.288;2023-02-10T07:42:41;96676.16;;;-4.35;100.00
10075;BME280;5076;42.680;23.288;2023-02-10T07:45:08;96679.91;;;-4.28;100.00
10075;BME280;5076;42.680;23.288;2023-02-10T07:47:35;96667.94;;;-4.29;100.00
10075;BME280;5076;42.680;23.288;2023-02-10T07:50:03;96689.75;;;-4.22;100.00
10075;BME280;5076;42.680;23.288;2023-02-10T07:52:30;96682.41;;;-4.71;100.00
10075;BME280;5076;42.680;23.288;2023-02-10T07:54:58;96666.00;;;-4.81;100.00
10075;BME280;5076;42.680;23.288;2023-02-10T07:57:28;96684.38;;;-4.30;100.00
10075;BME280;5076;42.680;23.288;2023-02-10T07:59:54;96690.56;;;-4.21;100.00
10075;BME280;5076;42.680;23.288;2023-02-10T08:02:21;96682.59;;;-4.18;100.00
10075;BME280;5076;42.680;23.288;2023-02-10T08:04:48;96678.72;;;-4.13;100.00
10075;BME280;5076;42.680;23.288;2023-02-10T08:07:17;96689.94;;;-4.03;100.00
10075;BME280;5076;42.680;23.288;2023-02-10T08:09:44;96688.72;;;-3.87;100.00
10075;BME280;5076;42.680;23.288;2023-02-10T08:12:12;96686.44;;;-3.70;100.00
10075;BME280;5076;42.680;23.288;2023-02-10T08:14:39;96664.41;;;-3.85;100.00
10075;BME280;5076;42.680;23.288;2023-02-10T08:17:06;96668.97;;;-3.36;100.00
10075;BME280;5076;42.680;23.288;2023-02-10T08:19:33;96670.31;;;-3.41;100.00
10075;BME280;5076;42.680;23.288;2023-02-10T08:22:01;96672.84;;;-1.89;100.00
10075;BME280;5076;42.680;23.288;2023-02-10T08:24:30;96656.25;;;-2.76;100.00
10075;BME280;5076;42.680;23.288;2023-02-10T08:26:56;96660.66;;;-2.58;100.00
10075;BME280;5076;42.680;23.288;2023-02-10T08:29:25;96661.72;;;-2.70;100.00
10075;BME280;5076;42.680;23.288;2023-02-10T08:31:52;96658.06;;;-2.67;100.00
10075;BME280;5076;42.680;23.288;2023-02-10T08:34:20;96669.81;;;-2.54;100.00
10075;BME280;5076;42.680;23.288;2023-02-10T08:36:47;96671.97;;;-2.19;100.00
10075;BME280;5076;42.680;23.288;2023-02-10T08:39:15;96662.19;;;-1.28;100.00
10075;BME280;5076;42.680;23.288;2023-02-10T08:41:42;96668.88;;;-1.35;100.00
10075;BME280;5076;42.680;23.288;2023-02-10T08:44:09;96669.31;;;-1.59;100.00
10075;BME280;5076;42.680;23.288;2023-02-10T08:46:39;96647.06;;;-1.91;100.00
10075;BME280;5076;42.680;23.288;2023-02-10T08:49:06;96653.19;;;-1.92;100.00
10075;BME280;5076;42.680;23.288;2023-02-10T08:51:33;96664.34;;;-2.10;100.00
10075;BME280;5076;42.680;23.288;2023-02-10T08:54:00;96664.47;;;-2.22;100.00
10075;BME280;5076;42.680;23.288;2023-02-10T08:56:27;96664.34;;;-2.20;100.00
10075;BME280;5076;42.680;23.288;2023-02-10T08:58:54;96659.66;;;-2.36;100.00
10075;BME280;5076;42.680;23.288;2023-02-10T09:01:23;96659.97;;;-2.20;100.00
10075;BME280;5076;42.680;23.288;2023-02-10T09:03:53;96637.09;;;-2.05;99.59
10075;BME280;5076;42.680;23.288;2023-02-10T09:06:21;96658.31;;;-2.30;98.33
10075;BME280;5076;42.680;23.288;2023-02-10T09:08:51;96641.38;;;-2.44;98.57
10075;BME280;5076;42.680;23.288;2023-02-10T09:11:19;96654.63;;;-2.37;98.97
10075;BME280;5076;42.680;23.288;2023-02-10T09:13:49;96640.84;;;-2.38;98.96
10075;BME280;5076;42.680;23.288;2023-02-10T09:16:16;96643.31;;;-2.36;97.99
10075;BME280;5076;42.680;23.288;2023-02-10T09:18:44;96636.09;;;-2.23;97.39
10075;BME280;5076;42.680;23.288;2023-02-10T09:21:13;96627.25;;;-2.11;97.01
10075;BME280;5076;42.680;23.288;2023-02-10T09:23:40;96646.13;;;-1.99;96.38
10075;BME280;5076;42.680;23.288;2023-02-10T09:26:07;96626.59;;;-1.94;95.31
10075;BME280;5076;42.680;23.288;2023-02-10T09:28:34;96620.44;;;-2.22;94.19
10075;BME280;5076;42.680;23.288;2023-02-10T09:31:04;96618.00;;;-2.04;94.34
10075;BME280;5076;42.680;23.288;2023-02-10T09:33:34;96621.69;;;-1.78;94.45
10075;BME280;5076;42.680;23.288;2023-02-10T09:36:02;96633.53;;;-1.46;92.71
10075;BME280;5076;42.680;23.288;2023-02-10T09:38:31;96629.06;;;-1.54;91.61
10075;BME280;5076;42.680;23.288;2023-02-10T09:41:06;96611.47;;;-1.89;91.82
10075;BME280;5076;42.680;23.288;2023-02-10T09:43:59;96622.75;;;-1.51;91.52
10075;BME280;5076;42.680;23.288;2023-02-10T09:46:39;96621.63;;;-1.20;90.42
10075;BME280;5076;42.680;23.288;2023-02-10T09:49:21;96611.00;;;-1.26;89.19
10075;BME280;5076;42.680;23.288;2023-02-10T09:51:58;96621.25;;;-1.25;89.12
10075;BME280;5076;42.680;23.288;2023-02-10T09:54:30;96603.22;;;-1.26;88.49
10075;BME280;5076;42.680;23.288;2023-02-10T09:57:01;96617.16;;;-1.27;88.09
10075;BME280;5076;42.680;23.288;2023-02-10T09:59:30;96587.31;;;-1.04;88.02
10075;BME280;5076;42.680;23.288;2023-02-10T10:02:02;96598.38;;;-0.75;86.54
10075;BME280;5076;42.680;23.288;2023-02-10T10:04:37;96603.69;;;-0.66;85.70
10075;BME280;5076;42.680;23.288;2023-02-10T10:07:20;96584.22;;;-0.80;85.18
10075;BME280;5076;42.680;23.288;2023-02-10T10:09:58;96589.00;;;-0.58;85.40
10075;BME280;5076;42.680;23.288;2023-02-10T10:12:28;96567.63;;;-0.69;84.25
10075;BME280;5076;42.680;23.288;2023-02-10T10:14:55;96601.16;;;-0.49;83.99
10075;BME280;5076;42.680;23.288;2023-02-10T10:17:34;96583.47;;;-0.45;84.29
10075;BME280;5076;42.680;23.288;2023-02-10T10:22:54;96578.91;;;-0.33;83.01
10075;BME280;5076;42.680;23.288;2023-02-10T10:25:47;96563.00;;;-0.48;81.93
10075;BME280;5076;42.680;23.288;2023-02-10T10:28:22;96568.13;;;-0.39;81.23
10075;BME280;5076;42.680;23.288;2023-02-10T10:30:55;96548.63;;;-0.25;80.83
10075;BME280;5076;42.680;23.288;2023-02-10T10:33:30;96553.28;;;-0.28;80.99
10075;BME280;5076;42.680;23.288;2023-02-10T10:36:00;96556.03;;;0.06;80.32
10075;BME280;5076;42.680;23.288;2023-02-10T10:38:30;96546.59;;;0.22;79.88
10075;BME280;5076;42.680;23.288;2023-02-10T10:41:03;96546.28;;;0.43;78.89
10075;BME280;5076;42.680;23.288;2023-02-10T10:43:32;96522.69;;;0.19;77.80
10075;BME280;5076;42.680;23.288;2023-02-10T10:46:09;96528.81;;;0.35;77.45
10075;BME280;5076;42.680;23.288;2023-02-10T10:48:40;96521.53;;;0.39;76.52
10075;BME280;5076;42.680;23.288;2023-02-10T10:51:08;96516.94;;;0.33;76.24
10075;BME280;5076;42.680;23.288;2023-02-10T10:53:39;96530.19;;;0.48;75.59
10075;BME280;5076;42.680;23.288;2023-02-10T10:56:15;96524.81;;;0.41;75.67
10075;BME280;5076;42.680;23.288;2023-02-10T10:58:44;96515.19;;;0.67;75.34
10075;BME280;5076;42.680;23.288;2023-02-10T11:01:14;96519.84;;;0.82;75.11
10075;BME280;5076;42.680;23.288;2023-02-10T11:03:41;96535.59;;;0.80;73.43
10075;BME280;5076;42.680;23.288;2023-02-10T11:06:09;96505.00;;;0.74;73.50
10075;BME280;5076;42.680;23.288;2023-02-10T11:08:39;96515.38;;;1.08;73.52
10075;BME280;5076;42.680;23.288;2023-02-10T11:11:11;96506.06;;;1.39;72.70
10075;BME280;5076;42.680;23.288;2023-02-10T11:13:41;96523.88;;;1.52;70.19
10075;BME280;5076;42.680;23.288;2023-02-10T11:16:14;96520.13;;;1.13;69.60
10075;BME280;5076;42.680;23.288;2023-02-10T11:18:51;96508.13;;;1.20;70.12
10075;BME280;5076;42.680;23.288;2023-02-10T11:21:18;96501.63;;;1.24;69.81
10075;BME280;5076;42.680;23.288;2023-02-10T11:23:50;96496.28;;;1.33;69.38
10075;BME280;5076;42.680;23.288;2023-02-10T11:26:21;96501.78;;;1.22;69.02
10075;BME280;5076;42.680;23.288;2023-02-10T11:28:49;96488.44;;;1.25;69.25
10075;BME280;5076;42.680;23.288;2023-02-10T11:31:27;96473.34;;;1.45;68.94
10075;BME280;5076;42.680;23.288;2023-02-10T11:33:58;96489.50;;;1.49;68.04
10075;BME280;5076;42.680;23.288;2023-02-10T11:36:33;96493.56;;;1.51;67.95
10075;BME280;5076;42.680;23.288;2023-02-10T11:39:03;96492.28;;;1.71;67.96
10075;BME280;5076;42.680;23.288;2023-02-10T11:41:33;96493.91;;;1.64;67.80
10075;BME280;5076;42.680;23.288;2023-02-10T11:44:00;96480.88;;;1.72;67.71
10075;BME280;5076;42.680;23.288;2023-02-10T11:46:30;96479.44;;;1.78;67.12
10075;BME280;5076;42.680;23.288;2023-02-10T11:48:58;96481.06;;;1.95;67.13
10075;BME280;5076;42.680;23.288;2023-02-10T11:51:25;96478.47;;;1.79;66.45
10075;BME280;5076;42.680;23.288;2023-02-10T11:53:53;96483.66;;;1.87;66.65
10075;BME280;5076;42.680;23.288;2023-02-10T11:56:23;96482.84;;;2.03;66.75
10075;BME280;5076;42.680;23.288;2023-02-10T11:59:22;96451.72;;;1.85;66.71
10075;BME280;5076;42.680;23.288;2023-02-10T12:01:56;96472.91;;;2.23;65.79
10075;BME280;5076;42.680;23.288;2023-02-10T12:04:52;96450.25;;;2.15;65.18
10075;BME280;5076;42.680;23.288;2023-02-10T12:07:33;96448.78;;;2.21;64.81
10075;BME280;5076;42.680;23.288;2023-02-10T12:10:09;96456.78;;;2.27;64.74
10075;BME280;5076;42.680;23.288;2023-02-10T12:12:44;96440.59;;;2.40;64.41
10075;BME280;5076;42.680;23.288;2023-02-10T12:15:25;96446.28;;;2.52;64.14
10075;BME280;5076;42.680;23.288;2023-02-10T12:18:00;96441.16;;;2.66;63.90
10075;BME280;5076;42.680;23.288;2023-02-10T12:20:41;96440.78;;;2.86;63.70
10075;BME280;5076;42.680;23.288;2023-02-10T12:23:37;96431.75;;;3.27;62.91
10075;BME280;5076;42.680;23.288;2023-02-10T12:26:11;96430.91;;;3.35;62.10
10075;BME280;5076;42.680;23.288;2023-02-10T12:28:49;96408.22;;;3.35;62.03
10075;BME280;5076;42.680;23.288;2023-02-10T12:31:26;96434.34;;;3.35;60.90
10075;BME280;5076;42.680;23.288;2023-02-10T12:34:22;96433.06;;;3.23;60.56
10075;BME280;5076;42.680;23.288;2023-02-10T12:37:01;96427.00;;;3.31;60.31
10075;BME280;5076;42.680;23.288;2023-02-10T12:39:36;96424.22;;;3.32;59.60
10075;BME280;5076;42.680;23.288;2023-02-10T12:42:15;96426.50;;;3.35;59.81
10075;BME280;5076;42.680;23.288;2023-02-10T12:44:55;96424.72;;;3.36;61.12
10075;BME280;5076;42.680;23.288;2023-02-10T12:47:35;96399.97;;;3.46;60.59
10075;BME280;5076;42.680;23.288;2023-02-10T12:50:27;96409.41;;;3.70;60.32
10075;BME280;5076;42.680;23.288;2023-02-10T12:52:58;96392.91;;;3.70;59.69
10075;BME280;5076;42.680;23.288;2023-02-10T12:55:34;96412.78;;;3.56;59.73
10075;BME280;5076;42.680;23.288;2023-02-10T12:58:09;96412.50;;;3.74;59.81
10075;BME280;5076;42.680;23.288;2023-02-10T13:00:42;96412.63;;;3.80;59.51
10075;BME280;5076;42.680;23.288;2023-02-10T13:03:16;96399.63;;;3.49;59.83
10075;BME280;5076;42.680;23.288;2023-02-10T13:05:47;96405.41;;;3.60;59.93
10075;BME280;5076;42.680;23.288;2023-02-10T13:08:24;96407.91;;;3.76;60.10
10075;BME280;5076;42.680;23.288;2023-02-10T13:10:53;96397.06;;;3.64;59.55
10075;BME280;5076;42.680;23.288;2023-02-10T13:13:24;96403.09;;;3.65;59.36
10075;BME280;5076;42.680;23.288;2023-02-10T13:15:57;96402.84;;;3.74;59.48
10075;BME280;5076;42.680;23.288;2023-02-10T13:18:29;96410.28;;;3.85;59.62